Time;durP1;ratioP1;P1;durP2;ratioP2;P2;SDS_P1;SDS_P2;PMS_P1;PMS_P2;Temp;Humidity;BMP_temperature;BMP_pressure;BME280_temperature;BME280_humidity;BME280_pressure;Samples;Min_cycle;Max_cycle;Signal;HPM_P1;HPM_P2
2022/01/29 00:00:36;;;;;;;6.88;3.00;;;;;;;6.69;94.85;101707.66;4966611;28;20109;-71
2022/01/29 00:03:03;;;;;;;7.03;3.10;;;;;;;6.60;95.92;101696.88;4977299;28;20096;-71
2022/01/29 00:05:28;;;;;;;8.82;2.80;;;;;;;6.67;95.08;101691.13;4965343;28;20132;-71
2022/01/29 00:07:54;;;;;;;8.02;3.38;;;;;;;6.80;94.83;101684.91;4979541;28;20526;-72
2022/01/29 00:10:20;;;;;;;11.63;3.22;;;;;;;6.86;94.90;101681.03;4976592;28;20030;-72
2022/01/29 00:12:45;;;;;;;8.05;3.10;;;;;;;6.86;94.99;101678.34;4978730;28;20543;-71
2022/01/29 00:15:11;;;;;;;6.28;2.78;;;;;;;7.02;94.58;101666.19;4970753;28;20065;-70
2022/01/29 00:17:37;;;;;;;10.48;2.95;;;;;;;6.99;95.00;101659.53;4967116;28;20027;-71
2022/01/29 00:20:04;;;;;;;8.85;3.60;;;;;;;6.93;95.06;101652.72;4974070;28;20521;-70
2022/01/29 00:22:29;;;;;;;8.88;3.58;;;;;;;6.93;95.44;101643.94;4957498;28;20035;-71
2022/01/29 00:24:57;;;;;;;9.48;3.83;;;;;;;6.91;95.50;101632.72;4963889;28;20540;-71
2022/01/29 00:27:24;;;;;;;7.88;3.85;;;;;;;7.10;94.98;101644.03;4963025;28;20959;-71
2022/01/29 00:29:50;;;;;;;9.35;3.40;;;;;;;7.03;95.19;101628.38;4981607;28;20038;-71
2022/01/29 00:32:15;;;;;;;7.80;3.83;;;;;;;7.02;95.00;101626.03;4979845;28;20042;-71
2022/01/29 00:34:41;;;;;;;8.63;3.95;;;;;;;7.00;95.70;101630.88;4981682;28;20113;-71
2022/01/29 00:37:08;;;;;;;9.15;3.50;;;;;;;6.95;96.48;101613.06;4973424;28;20169;-71
2022/01/29 00:39:34;;;;;;;10.93;4.13;;;;;;;6.93;96.45;101603.78;4963951;28;20492;-72
2022/01/29 00:41:59;;;;;;;13.55;3.83;;;;;;;6.96;96.23;101605.81;4962889;28;20043;-70
2022/01/29 00:44:25;;;;;;;10.13;3.53;;;;;;;6.91;96.66;101596.03;4982684;28;20037;-71
2022/01/29 00:46:50;;;;;;;10.10;3.95;;;;;;;7.06;96.33;101600.22;4975117;28;20500;-71
2022/01/29 00:49:16;;;;;;;8.43;3.80;;;;;;;6.86;97.34;101588.13;4957458;28;20038;-71
2022/01/29 00:51:41;;;;;;;9.13;4.07;;;;;;;6.88;97.89;101585.13;4960304;28;20039;-71
2022/01/29 00:54:07;;;;;;;9.10;3.58;;;;;;;6.99;97.31;101579.22;4951068;28;20026;-71
2022/01/29 00:56:32;;;;;;;9.50;3.85;;;;;;;6.98;97.49;101572.31;4979565;28;20042;-71
2022/01/29 00:58:58;;;;;;;12.88;4.65;;;;;;;7.05;97.84;101566.47;4976493;28;20031;-71
2022/01/29 01:01:24;;;;;;;12.00;4.97;;;;;;;7.06;97.57;101563.53;4971332;28;20038;-72
2022/01/29 01:03:50;;;;;;;15.00;5.53;;;;;;;6.91;98.50;101557.78;4973949;28;20382;-71
2022/01/29 01:06:16;;;;;;;16.00;5.28;;;;;;;6.96;98.80;101546.91;4976883;28;20029;-71
2022/01/29 01:08:42;;;;;;;14.93;4.55;;;;;;;7.08;98.89;101547.91;4969937;28;20396;-70
2022/01/29 01:11:07;;;;;;;17.27;5.55;;;;;;;6.95;99.36;101540.00;4960621;28;20488;-71
2022/01/29 01:13:34;;;;;;;16.55;5.93;;;;;;;6.89;100.00;101539.31;4967544;28;20039;-70
2022/01/29 01:16:00;;;;;;;10.20;4.70;;;;;;;7.03;100.00;101545.38;4969841;28;20929;-71
2022/01/29 01:18:26;;;;;;;18.70;5.68;;;;;;;7.02;100.00;101527.75;4966317;28;20150;-71
2022/01/29 01:20:51;;;;;;;13.05;5.03;;;;;;;6.92;100.00;101521.84;4976983;28;20107;-70
2022/01/29 01:23:17;;;;;;;15.45;5.60;;;;;;;6.98;100.00;101525.97;4969259;28;20047;-72
2022/01/29 01:25:42;;;;;;;18.33;5.40;;;;;;;6.89;100.00;101517.91;4972254;28;20038;-71
2022/01/29 01:28:08;;;;;;;14.98;7.18;;;;;;;7.06;100.00;101526.03;4977198;28;20030;-71
2022/01/29 01:30:35;;;;;;;19.88;5.90;;;;;;;7.18;100.00;101512.06;4961247;28;20082;-72
2022/01/29 01:33:02;;;;;;;16.38;5.90;;;;;;;7.05;100.00;101508.38;4979936;28;20487;-71
2022/01/29 01:35:51;;;;;;;16.77;5.57;;;;;;;7.10;100.00;101502.88;4975379;28;20070;-71
2022/01/29 01:41:02;;;;;;;13.55;5.38;;;;;;;6.98;100.00;101491.97;4975357;28;20129;-71
2022/01/29 01:43:28;;;;;;;15.50;6.25;;;;;;;6.90;100.00;101479.34;4995961;28;20126;-70
2022/01/29 01:45:53;;;;;;;13.90;6.85;;;;;;;6.90;100.00;101482.03;4977096;28;20734;-71
2022/01/29 01:48:19;;;;;;;22.52;7.70;;;;;;;6.93;100.00;101478.72;4976153;28;20034;-71
2022/01/29 01:50:44;;;;;;;19.10;6.95;;;;;;;6.93;100.00;101480.63;4966371;28;20124;-71
2022/01/29 01:53:10;;;;;;;17.55;6.05;;;;;;;6.95;100.00;101473.84;4981435;28;20434;-71
2022/01/29 01:55:37;;;;;;;15.23;5.65;;;;;;;7.05;100.00;101478.13;4967701;28;20101;-70
2022/01/29 01:58:03;;;;;;;17.52;6.55;;;;;;;7.00;100.00;101467.56;4962572;28;21845;-69
2022/01/29 02:00:28;;;;;;;20.30;7.60;;;;;;;6.96;100.00;101462.03;4960033;28;20039;-71
2022/01/29 02:02:54;;;;;;;14.65;6.40;;;;;;;7.07;100.00;101457.97;4980210;28;20053;-69
2022/01/29 02:05:20;;;;;;;21.38;7.68;;;;;;;7.04;100.00;101444.44;4973776;28;20407;-71
2022/01/29 02:07:46;;;;;;;24.50;7.47;;;;;;;7.10;100.00;101435.16;4976523;28;20038;-72
2022/01/29 02:10:13;;;;;;;14.10;6.22;;;;;;;6.98;100.00;101427.72;4962789;28;20769;-71
2022/01/29 02:12:53;;;;;;;27.45;8.30;;;;;;;7.02;100.00;101411.81;4965014;28;20066;-72
2022/01/29 02:15:21;;;;;;;14.50;6.05;;;;;;;6.95;100.00;101406.13;4980496;28;20038;-69
2022/01/29 02:17:47;;;;;;;21.67;7.80;;;;;;;7.00;100.00;101403.31;4960679;28;20460;-70
2022/01/29 02:20:14;;;;;;;24.23;7.25;;;;;;;7.13;100.00;101389.78;4969725;28;20034;-68
2022/01/29 02:22:42;;;;;;;21.05;6.97;;;;;;;7.11;100.00;101386.63;4969401;28;20041;-72
2022/01/29 02:25:45;;;;;;;19.17;7.10;;;;;;;7.04;100.00;101377.47;4944622;28;20070;-72
2022/01/29 02:28:14;;;;;;;16.65;6.18;;;;;;;7.08;100.00;101367.72;4971563;28;20128;-72
2022/01/29 02:30:42;;;;;;;24.83;7.47;;;;;;;7.05;100.00;101353.06;4979067;28;20132;-71
2022/01/29 02:33:12;;;;;;;16.30;6.13;;;;;;;7.14;100.00;101351.19;4975267;28;20053;-69
2022/01/29 02:35:43;;;;;;;25.75;9.27;;;;;;;6.94;100.00;101340.28;4973322;28;20038;-71
2022/01/29 02:38:10;;;;;;;25.20;7.47;;;;;;;6.88;100.00;101334.31;4978864;28;20078;-72
2022/01/29 02:40:44;;;;;;;25.50;8.35;;;;;;;6.91;100.00;101333.66;4960461;28;20057;-71
2022/01/29 02:43:12;;;;;;;21.45;7.03;;;;;;;6.92;100.00;101321.09;4961860;28;20115;-71
2022/01/29 02:45:38;;;;;;;21.38;7.05;;;;;;;6.88;100.00;101312.91;4971318;28;20039;-71
2022/01/29 02:48:04;;;;;;;23.02;7.15;;;;;;;6.85;100.00;101312.75;4979792;28;20064;-72
2022/01/29 02:50:29;;;;;;;28.45;8.20;;;;;;;7.03;100.00;101309.75;4975643;28;20360;-72
2022/01/29 02:52:55;;;;;;;25.08;8.23;;;;;;;6.90;100.00;101301.88;4944215;28;20876;-72
2022/01/29 02:55:20;;;;;;;20.33;7.00;;;;;;;6.83;100.00;101301.56;4961962;28;20030;-71
2022/01/29 02:57:45;;;;;;;16.98;6.15;;;;;;;6.97;100.00;101300.28;4969202;28;20113;-71
2022/01/29 03:00:11;;;;;;;17.35;6.90;;;;;;;7.11;100.00;101297.47;4961704;28;20038;-69
2022/01/29 03:02:37;;;;;;;20.20;5.95;;;;;;;7.21;100.00;101291.78;4964751;28;20038;-72
2022/01/29 03:05:02;;;;;;;17.08;6.68;;;;;;;7.07;100.00;101283.91;4972697;28;20093;-71
2022/01/29 03:07:28;;;;;;;24.40;7.78;;;;;;;7.01;100.00;101279.81;4961951;28;20081;-69
2022/01/29 03:09:53;;;;;;;20.15;7.18;;;;;;;6.94;100.00;101273.38;4961461;28;20113;-72
2022/01/29 03:12:19;;;;;;;26.20;6.68;;;;;;;7.09;100.00;101264.84;4968853;28;20121;-71
2022/01/29 03:14:44;;;;;;;21.92;7.15;;;;;;;7.18;100.00;101274.47;4975218;28;20346;-72
2022/01/29 03:17:10;;;;;;;17.83;7.50;;;;;;;7.04;100.00;101265.03;4971315;28;20043;-72
2022/01/29 03:19:35;;;;;;;26.67;7.60;;;;;;;7.01;100.00;101260.28;4970882;28;20056;-70
2022/01/29 03:22:01;;;;;;;13.60;4.88;;;;;;;7.17;100.00;101259.50;4979736;28;20037;-71
2022/01/29 03:24:26;;;;;;;27.20;7.50;;;;;;;6.95;100.00;101253.53;4980716;28;20034;-72
2022/01/29 03:26:52;;;;;;;16.58;6.65;;;;;;;7.02;100.00;101254.63;4979161;28;20158;-71
2022/01/29 03:29:17;;;;;;;17.77;5.45;;;;;;;7.15;100.00;101242.19;4970183;28;20035;-71
2022/01/29 03:31:42;;;;;;;18.17;6.63;;;;;;;7.07;100.00;101233.03;4973380;28;20046;-73
2022/01/29 03:34:08;;;;;;;24.83;7.43;;;;;;;7.08;100.00;101233.84;4966366;28;20039;-72
2022/01/29 03:36:33;;;;;;;23.40;6.88;;;;;;;7.11;100.00;101219.81;4975634;28;20399;-72
2022/01/29 03:39:00;;;;;;;18.13;6.47;;;;;;;7.03;100.00;101213.38;4961296;28;20085;-72
2022/01/29 03:41:26;;;;;;;17.95;6.03;;;;;;;7.11;100.00;101207.22;4970770;28;20110;-71
2022/01/29 03:43:53;;;;;;;17.88;6.30;;;;;;;7.20;100.00;101199.19;4970852;28;20126;-72
2022/01/29 03:46:19;;;;;;;10.90;4.82;;;;;;;7.34;100.00;101190.94;4977705;28;20077;-72
2022/01/29 03:48:44;;;;;;;20.95;7.45;;;;;;;7.24;100.00;101189.38;4980549;28;20074;-71
2022/01/29 03:51:10;;;;;;;21.45;6.32;;;;;;;7.26;100.00;101177.25;4978728;28;20408;-72
2022/01/29 03:53:35;;;;;;;21.77;5.75;;;;;;;7.14;100.00;101171.00;4965884;28;20077;-73
2022/01/29 03:56:01;;;;;;;14.98;5.03;;;;;;;7.12;100.00;101159.81;4965466;28;20038;-72
2022/01/29 03:58:26;;;;;;;17.77;6.60;;;;;;;7.07;100.00;101166.09;4976067;28;20075;-73
2022/01/29 04:00:52;;;;;;;16.13;5.35;;;;;;;7.15;100.00;101159.94;4962154;28;20388;-73
2022/01/29 04:03:17;;;;;;;19.40;6.50;;;;;;;7.15;100.00;101141.22;4983244;28;20736;-73
2022/01/29 04:05:43;;;;;;;15.98;5.43;;;;;;;7.41;100.00;101151.06;4983655;28;20046;-72
2022/01/29 04:08:15;;;;;;;15.15;5.68;;;;;;;7.33;100.00;101158.00;4979391;28;20065;-71
2022/01/29 04:10:41;;;;;;;17.63;6.07;;;;;;;7.22;100.00;101160.25;4966315;28;20049;-72
2022/01/29 04:13:09;;;;;;;21.52;6.18;;;;;;;7.32;100.00;101147.63;4983517;28;20030;-72
2022/01/29 04:15:35;;;;;;;18.33;5.80;;;;;;;7.31;100.00;101133.44;4966449;28;20388;-72
2022/01/29 04:18:00;;;;;;;16.25;5.65;;;;;;;7.27;100.00;101130.63;4983544;28;20038;-73
2022/01/29 04:20:26;;;;;;;13.82;5.05;;;;;;;7.32;100.00;101117.03;4980212;28;20030;-73
2022/01/29 04:22:51;;;;;;;15.68;5.07;;;;;;;7.24;100.00;101101.00;4946293;28;20085;-72
2022/01/29 04:25:16;;;;;;;13.32;5.63;;;;;;;7.17;100.00;101114.09;4970952;28;20038;-73
2022/01/29 04:27:45;;;;;;;15.45;6.20;;;;;;;7.15;100.00;101102.91;4979030;28;20121;-73
2022/01/29 04:30:23;;;;;;;11.38;4.35;;;;;;;7.20;100.00;101108.88;4954619;28;20046;-72
2022/01/29 04:35:14;;;;;;;16.75;5.13;;;;;;;7.30;100.00;101092.47;4979162;28;20053;-70
2022/01/29 04:37:40;;;;;;;15.07;5.05;;;;;;;7.36;100.00;101097.63;4983385;28;20068;-73
2022/01/29 04:40:06;;;;;;;10.00;4.30;;;;;;;7.38;100.00;101090.06;4981778;28;20046;-73
2022/01/29 04:42:31;;;;;;;11.45;4.57;;;;;;;7.23;100.00;101091.41;4981286;28;20042;-72
2022/01/29 04:44:57;;;;;;;14.20;4.25;;;;;;;7.25;100.00;101079.25;4968900;28;20089;-73
2022/01/29 04:47:22;;;;;;;11.48;4.25;;;;;;;7.35;100.00;101080.78;4974004;28;20045;-71
2022/01/29 04:49:48;;;;;;;11.20;4.72;;;;;;;7.34;100.00;101062.38;4968487;28;20043;-72
2022/01/29 04:52:13;;;;;;;13.75;4.97;;;;;;;7.42;100.00;101056.16;4962778;28;20039;-72
2022/01/29 04:54:38;;;;;;;13.00;4.22;;;;;;;7.34;100.00;101055.09;4983132;28;20486;-74
2022/01/29 04:57:04;;;;;;;15.25;4.80;;;;;;;7.41;100.00;101047.38;4967906;28;20548;-72
2022/01/29 04:59:29;;;;;;;12.13;4.78;;;;;;;7.45;100.00;101047.50;4970886;28;20026;-72
2022/01/29 05:01:55;;;;;;;9.93;3.78;;;;;;;7.36;100.00;101049.41;4960789;28;20073;-72
2022/01/29 05:04:20;;;;;;;10.18;4.00;;;;;;;7.39;100.00;101051.47;4963616;28;20396;-75
2022/01/29 05:06:45;;;;;;;14.50;5.50;;;;;;;7.47;100.00;101047.97;4971853;28;20038;-71
2022/01/29 05:09:11;;;;;;;14.60;4.07;;;;;;;7.48;100.00;101034.22;4967262;28;20034;-72
2022/01/29 05:11:37;;;;;;;11.02;3.80;;;;;;;7.67;100.00;101028.44;4973648;28;20118;-76
2022/01/29 05:14:06;;;;;;;10.82;4.57;;;;;;;7.52;100.00;101024.44;4955659;28;20065;-72
2022/01/29 05:27:27;;;;;;;9.02;3.92;;;;;;;7.68;100.00;101020.09;4980747;28;20072;-71
2022/01/29 05:29:52;;;;;;;10.30;4.60;;;;;;;7.49;100.00;101006.31;4983486;28;20838;-71
2022/01/29 05:32:18;;;;;;;13.88;5.63;;;;;;;7.42;100.00;100994.53;4979913;28;20038;-71
2022/01/29 05:34:43;;;;;;;11.23;4.00;;;;;;;7.53;100.00;100987.72;4979785;28;20073;-73
2022/01/29 05:37:08;;;;;;;14.25;4.80;;;;;;;7.67;100.00;100988.22;4981532;28;20034;-72
2022/01/29 05:39:34;;;;;;;13.25;4.75;;;;;;;7.64;100.00;100984.31;4980705;28;20041;-72
2022/01/29 05:41:59;;;;;;;9.85;3.75;;;;;;;7.75;100.00;100985.50;4987828;28;20041;-72
2022/01/29 05:44:25;;;;;;;9.25;3.85;;;;;;;7.82;100.00;100985.75;5002340;28;20026;-73
2022/01/29 05:46:51;;;;;;;15.45;5.43;;;;;;;7.69;100.00;100980.66;4982497;28;20042;-73
2022/01/29 05:49:16;;;;;;;15.27;4.30;;;;;;;7.84;100.00;100983.53;4978269;28;20050;-72
2022/01/29 05:51:42;;;;;;;11.57;4.82;;;;;;;7.92;100.00;100990.72;4974980;28;20073;-71
2022/01/29 05:54:08;;;;;;;13.18;4.55;;;;;;;7.95;100.00;100991.97;4961984;28;22119;-72
2022/01/29 05:56:33;;;;;;;12.77;4.80;;;;;;;7.90;100.00;100976.06;4974161;28;20037;-72
2022/01/29 05:58:59;;;;;;;9.93;4.15;;;;;;;7.88;100.00;100983.66;4973811;28;20084;-72
2022/01/29 06:01:24;;;;;;;19.42;4.45;;;;;;;7.93;100.00;100975.41;4966822;28;20030;-72
2022/01/29 06:03:49;;;;;;;13.60;4.53;;;;;;;7.88;100.00;100957.63;4978983;28;20061;-73
2022/01/29 06:06:15;;;;;;;11.90;4.57;;;;;;;7.98;100.00;100965.28;4972015;28;20034;-71
2022/01/29 06:08:41;;;;;;;14.63;4.57;;;;;;;8.01;100.00;100961.16;4977448;28;20061;-73
2022/01/29 06:11:06;;;;;;;10.25;4.53;;;;;;;8.23;100.00;100950.03;4965462;28;20134;-71
2022/01/29 06:13:32;;;;;;;16.30;5.13;;;;;;;8.13;100.00;100953.13;4963152;28;20031;-72
2022/01/29 06:15:57;;;;;;;12.40;4.88;;;;;;;8.08;100.00;100934.56;4961518;28;20086;-72
2022/01/29 06:18:25;;;;;;;7.15;3.50;;;;;;;8.23;100.00;100919.78;4972239;28;20804;-72
2022/01/29 06:21:03;;;;;;;16.95;4.88;;;;;;;8.21;100.00;100917.41;4972329;28;20046;-71
2022/01/29 06:23:33;;;;;;;10.15;4.57;;;;;;;8.11;100.00;100923.19;4975842;28;20034;-72
2022/01/29 06:26:01;;;;;;;11.43;4.70;;;;;;;8.15;100.00;100908.00;4955091;28;20146;-72
2022/01/29 06:28:26;;;;;;;10.95;4.53;;;;;;;8.07;100.00;100888.19;4973842;28;20039;-73
2022/01/29 06:30:52;;;;;;;6.13;3.40;;;;;;;8.28;100.00;100888.19;4973926;28;20050;-71
2022/01/29 06:33:18;;;;;;;12.27;4.00;;;;;;;8.23;100.00;100901.75;4977784;28;20057;-72
2022/01/29 06:35:44;;;;;;;12.80;5.03;;;;;;;8.24;100.00;100892.59;4969305;28;20105;-72
2022/01/29 06:38:12;;;;;;;11.75;4.07;;;;;;;8.44;100.00;100894.44;4958935;28;20042;-72
2022/01/29 06:40:38;;;;;;;11.80;4.30;;;;;;;8.34;100.00;100889.53;4972618;28;20038;-73
2022/01/29 06:43:05;;;;;;;12.93;4.65;;;;;;;8.44;100.00;100896.34;4973626;28;20037;-72
2022/01/29 06:45:32;;;;;;;13.40;5.22;;;;;;;8.33;100.00;100876.44;4980462;28;20041;-72
2022/01/29 06:47:57;;;;;;;13.52;3.92;;;;;;;8.40;100.00;100887.41;4965855;28;20045;-72
2022/01/29 06:50:24;;;;;;;15.23;4.90;;;;;;;8.39;100.00;100877.78;4970232;28;20030;-72
2022/01/29 06:52:49;;;;;;;13.93;5.03;;;;;;;8.43;100.00;100890.19;4971591;28;20061;-73
2022/01/29 06:55:15;;;;;;;11.43;4.47;;;;;;;8.60;100.00;100889.97;4977942;28;20033;-72
2022/01/29 06:57:40;;;;;;;16.38;5.45;;;;;;;8.50;100.00;100889.63;4978985;28;20026;-73
2022/01/29 07:00:09;;;;;;;12.57;4.78;;;;;;;8.46;100.00;100883.41;4981100;28;20455;-73
2022/01/29 07:02:35;;;;;;;13.38;5.63;;;;;;;8.61;100.00;100886.19;4973142;28;20502;-72
2022/01/29 07:05:02;;;;;;;20.08;5.03;;;;;;;8.55;100.00;100886.75;4980867;28;20038;-72
2022/01/29 07:07:27;;;;;;;12.00;4.20;;;;;;;8.53;100.00;100892.44;4980814;28;20104;-73
2022/01/29 07:09:53;;;;;;;19.67;5.80;;;;;;;8.64;100.00;100900.84;4944274;28;20129;-72
2022/01/29 07:12:18;;;;;;;17.75;6.13;;;;;;;8.66;100.00;100891.34;4976285;28;20046;-72
2022/01/29 07:14:44;;;;;;;10.75;4.60;;;;;;;8.63;100.00;100886.63;4973653;28;20041;-72
2022/01/29 07:17:16;;;;;;;15.23;3.92;;;;;;;8.64;100.00;100887.41;4979727;28;20038;-72
2022/01/29 07:19:42;;;;;;;11.65;4.72;;;;;;;8.84;100.00;100894.56;4976455;28;20093;-72
2022/01/29 07:22:07;;;;;;;13.50;5.18;;;;;;;8.80;100.00;100891.78;4975984;28;20488;-72
2022/01/29 07:24:33;;;;;;;9.35;4.22;;;;;;;8.67;100.00;100906.31;4962689;28;20042;-71
2022/01/29 07:26:58;;;;;;;12.52;4.57;;;;;;;8.60;100.00;100911.47;4979417;28;20046;-73
2022/01/29 07:29:24;;;;;;;13.43;5.32;;;;;;;8.62;100.00;100914.59;4965743;28;20033;-72
2022/01/29 07:31:50;;;;;;;9.50;4.05;;;;;;;8.92;100.00;100915.91;4960828;28;20046;-70
2022/01/29 07:34:17;;;;;;;9.52;3.53;;;;;;;8.86;100.00;100909.25;4949277;28;20044;-71
2022/01/29 07:36:42;;;;;;;14.88;5.35;;;;;;;8.88;100.00;100903.53;4953502;28;20045;-72
2022/01/29 07:39:08;;;;;;;12.32;5.00;;;;;;;8.73;100.00;100910.34;4980664;28;20042;-72
2022/01/29 07:41:33;;;;;;;12.23;4.00;;;;;;;8.72;100.00;100906.09;4970985;28;20208;-73
2022/01/29 07:44:05;;;;;;;9.55;4.15;;;;;;;8.79;100.00;100898.25;4953148;28;20039;-73
2022/01/29 07:46:30;;;;;;;12.65;4.53;;;;;;;8.85;100.00;100913.03;4958702;28;20039;-72
2022/01/29 07:48:56;;;;;;;10.32;3.33;;;;;;;8.95;100.00;100899.16;4944062;28;20035;-72
2022/01/29 07:51:21;;;;;;;14.50;4.65;;;;;;;8.91;100.00;100903.63;4961910;28;20479;-72
2022/01/29 07:53:47;;;;;;;10.70;4.28;;;;;;;9.04;100.00;100902.50;4963347;28;20035;-72
2022/01/29 07:56:12;;;;;;;13.55;4.45;;;;;;;8.91;100.00;100895.56;4959686;28;20045;-73
2022/01/29 07:58:37;;;;;;;9.32;4.20;;;;;;;8.81;100.00;100890.66;4961528;28;20078;-72
2022/01/29 08:01:03;;;;;;;14.15;3.90;;;;;;;8.67;100.00;100879.47;4972510;28;20122;-72
2022/01/29 08:03:29;;;;;;;8.98;3.78;;;;;;;8.79;100.00;100882.16;4958719;28;20558;-72
2022/01/29 08:05:54;;;;;;;9.73;4.13;;;;;;;8.89;100.00;100867.47;4970475;28;20054;-72
2022/01/29 08:08:20;;;;;;;11.80;3.75;;;;;;;8.93;100.00;100873.75;4967254;28;20114;-72
2022/01/29 08:10:46;;;;;;;11.48;4.40;;;;;;;8.97;100.00;100859.31;4958843;28;20388;-73
2022/01/29 08:13:11;;;;;;;8.55;3.80;;;;;;;8.91;100.00;100868.72;4964451;28;21172;-70
2022/01/29 08:15:37;;;;;;;6.95;3.05;;;;;;;8.82;100.00;100862.69;4965331;28;20057;-71
2022/01/29 08:18:05;;;;;;;7.38;3.40;;;;;;;9.04;100.00;100858.72;4970414;28;20041;-72
2022/01/29 08:20:30;;;;;;;6.68;3.05;;;;;;;9.06;100.00;100853.78;4960590;28;20042;-72
2022/01/29 08:22:56;;;;;;;8.85;3.83;;;;;;;9.00;100.00;100850.56;4960927;28;20453;-71
2022/01/29 08:25:21;;;;;;;7.00;2.78;;;;;;;8.93;100.00;100838.84;4977843;28;20113;-72
2022/01/29 08:27:46;;;;;;;5.53;2.40;;;;;;;9.06;100.00;100830.41;4976484;28;20022;-72
2022/01/29 08:30:12;;;;;;;8.95;3.05;;;;;;;8.89;100.00;100825.31;4961857;28;20031;-72
2022/01/29 08:32:42;;;;;;;8.20;3.58;;;;;;;9.07;100.00;100834.69;4961443;28;20053;-72
2022/01/29 08:35:13;;;;;;;6.68;2.97;;;;;;;9.15;100.00;100824.13;4968532;28;20049;-71
2022/01/29 08:37:38;;;;;;;7.15;3.00;;;;;;;9.20;100.00;100819.28;4970729;28;20034;-71
2022/01/29 08:40:05;;;;;;;5.60;3.05;;;;;;;9.31;100.00;100814.22;4941460;28;20164;-72
2022/01/29 08:42:30;;;;;;;3.88;2.13;;;;;;;9.27;100.00;100803.34;4965265;28;20928;-72
2022/01/29 08:44:56;;;;;;;4.13;2.33;;;;;;;9.26;100.00;100806.38;4977933;28;20026;-72
2022/01/29 08:47:21;;;;;;;6.78;2.92;;;;;;;9.01;100.00;100808.38;4961211;28;20048;-72
2022/01/29 08:49:47;;;;;;;6.40;2.13;;;;;;;9.05;100.00;100798.53;4972629;28;20026;-70
2022/01/29 08:52:13;;;;;;;7.35;2.72;;;;;;;8.91;100.00;100777.41;4964966;28;20038;-70
2022/01/29 08:54:38;;;;;;;4.97;2.65;;;;;;;8.86;100.00;100779.56;4974447;28;20023;-72
2022/01/29 08:57:04;;;;;;;3.67;2.35;;;;;;;8.95;100.00;100786.34;4965893;28;20034;-72
2022/01/29 08:59:29;;;;;;;7.55;2.67;;;;;;;8.87;100.00;100763.09;4973529;28;20480;-71
2022/01/29 09:01:55;;;;;;;9.20;3.10;;;;;;;9.00;100.00;100759.25;4959836;28;20062;-72
2022/01/29 09:04:20;;;;;;;7.68;2.95;;;;;;;9.06;100.00;100770.53;4966861;28;20034;-70
2022/01/29 09:06:45;;;;;;;5.60;2.70;;;;;;;9.15;100.00;100757.75;4958963;28;20049;-72
2022/01/29 09:09:11;;;;;;;6.35;2.97;;;;;;;9.08;100.00;100758.31;4967593;28;20121;-72
2022/01/29 09:11:36;;;;;;;6.85;3.25;;;;;;;9.08;100.00;100773.66;4962368;28;20097;-71
2022/01/29 09:14:02;;;;;;;7.55;3.40;;;;;;;9.29;100.00;100762.72;4975552;28;20056;-70
2022/01/29 09:16:27;;;;;;;4.45;2.40;;;;;;;9.22;100.00;100749.09;4978309;28;20063;-72
2022/01/29 09:18:53;;;;;;;5.93;2.80;;;;;;;9.26;100.00;100739.22;4981825;28;20026;-72
2022/01/29 09:21:18;;;;;;;6.22;2.83;;;;;;;9.28;100.00;100729.69;4979901;28;20035;-71
2022/01/29 09:23:43;;;;;;;9.25;2.10;;;;;;;9.26;100.00;100717.72;4976254;28;20086;-72
2022/01/29 09:26:09;;;;;;;6.38;3.05;;;;;;;9.19;100.00;100721.03;4961442;28;20037;-72
2022/01/29 09:28:35;;;;;;;6.93;3.53;;;;;;;9.19;100.00;100715.66;4963184;28;20037;-71
2022/01/29 09:31:00;;;;;;;5.15;2.40;;;;;;;9.29;100.00;100735.84;4959433;28;20073;-72
2022/01/29 09:33:25;;;;;;;5.35;2.20;;;;;;;9.18;100.00;100706.00;4978926;28;20026;-72
2022/01/29 09:35:51;;;;;;;6.20;2.15;;;;;;;9.21;100.00;100702.66;4976507;28;20108;-72
2022/01/29 09:38:17;;;;;;;4.55;2.03;;;;;;;9.29;100.00;100693.63;4975412;28;20022;-72
2022/01/29 09:40:43;;;;;;;8.30;3.03;;;;;;;9.39;100.00;100695.06;4945377;28;20460;-72
2022/01/29 09:43:10;;;;;;;5.22;2.13;;;;;;;9.52;100.00;100701.91;4969718;28;20092;-72
2022/01/29 09:45:37;;;;;;;5.45;2.20;;;;;;;9.62;100.00;100701.41;4965113;28;20109;-72
2022/01/29 09:48:03;;;;;;;5.07;2.58;;;;;;;9.62;100.00;100698.72;4964426;28;21023;-72
2022/01/29 09:50:31;;;;;;;8.18;2.35;;;;;;;9.76;100.00;100712.47;4969519;28;20535;-72
2022/01/29 09:52:59;;;;;;;7.00;2.63;;;;;;;9.81;100.00;100704.16;4971233;28;20030;-72
2022/01/29 09:55:25;;;;;;;10.45;3.20;;;;;;;9.61;100.00;100699.81;4972669;28;20129;-72
2022/01/29 09:57:52;;;;;;;4.88;2.35;;;;;;;9.78;100.00;100700.25;4979907;28;20047;-72
2022/01/29 10:00:18;;;;;;;4.53;2.25;;;;;;;9.81;100.00;100706.84;4977966;28;20070;-71
2022/01/29 10:02:43;;;;;;;6.93;2.50;;;;;;;9.59;100.00;100704.75;4980102;28;20049;-72
2022/01/29 10:05:12;;;;;;;6.55;2.78;;;;;;;9.53;100.00;100676.56;4964289;28;20026;-70
2022/01/29 10:07:38;;;;;;;4.13;2.58;;;;;;;9.72;100.00;100684.72;4968051;28;20086;-71
2022/01/29 10:10:17;;;;;;;6.57;3.03;;;;;;;9.69;100.00;100675.47;4962062;28;20049;-72
2022/01/29 10:12:43;;;;;;;7.47;2.47;;;;;;;9.64;100.00;100658.81;4974248;28;20089;-72
2022/01/29 10:15:09;;;;;;;5.35;2.80;;;;;;;9.74;100.00;100667.13;4962712;28;20070;-70
2022/01/29 10:17:43;;;;;;;3.72;2.30;;;;;;;9.74;100.00;100677.09;4962107;28;20039;-70
2022/01/29 10:20:24;;;;;;;5.28;2.13;;;;;;;9.73;100.00;100670.16;4962574;28;20047;-72
2022/01/29 10:22:49;;;;;;;5.95;2.13;;;;;;;9.60;100.00;100669.47;4960195;28;20125;-71
2022/01/29 10:25:21;;;;;;;6.05;2.35;;;;;;;9.53;100.00;100653.16;4961784;28;20106;-71
2022/01/29 10:28:11;;;;;;;4.95;2.00;;;;;;;9.72;100.00;100647.06;4973430;28;20121;-70
2022/01/29 10:30:48;;;;;;;3.17;1.85;;;;;;;9.46;100.00;100644.16;4960897;28;20069;-72
2022/01/29 10:33:24;;;;;;;3.45;2.08;;;;;;;9.48;100.00;100634.63;4976784;28;20042;-72
2022/01/29 10:35:55;;;;;;;3.58;2.00;;;;;;;9.50;100.00;100618.16;4973426;28;20042;-70
2022/01/29 10:38:23;;;;;;;4.38;2.08;;;;;;;9.57;100.00;100623.69;4962374;28;20357;-70
2022/01/29 10:41:16;;;;;;;4.05;1.50;;;;;;;9.58;100.00;100619.88;4965117;28;20121;-72
2022/01/29 10:44:10;;;;;;;4.00;2.22;;;;;;;9.65;100.00;100603.91;4965553;28;20542;-72
2022/01/29 10:46:42;;;;;;;4.82;2.15;;;;;;;9.68;100.00;100598.59;4963324;28;20049;-71
2022/01/29 10:49:08;;;;;;;3.70;1.30;;;;;;;9.74;100.00;100586.44;4981210;28;20149;-72
2022/01/29 10:51:35;;;;;;;3.88;1.90;;;;;;;9.63;100.00;100590.81;4959962;28;20118;-71
2022/01/29 10:54:18;;;;;;;2.50;1.77;;;;;;;9.51;100.00;100577.47;4966554;28;20521;-72
2022/01/29 10:56:55;;;;;;;4.07;1.90;;;;;;;9.58;100.00;100576.88;4964541;28;20096;-72
2022/01/29 10:59:21;;;;;;;3.05;1.35;;;;;;;9.54;100.00;100562.56;4985319;28;20040;-72
2022/01/29 11:01:52;;;;;;;3.22;1.60;;;;;;;9.43;100.00;100556.94;4972419;28;20034;-71
2022/01/29 11:04:17;;;;;;;2.23;1.50;;;;;;;9.48;100.00;100534.38;4968543;28;20313;-72
2022/01/29 11:06:45;;;;;;;3.17;1.50;;;;;;;9.56;100.00;100530.72;4980379;28;20609;-72
2022/01/29 11:09:12;;;;;;;7.43;1.67;;;;;;;9.65;100.00;100547.44;4979856;28;20041;-72
2022/01/29 11:11:39;;;;;;;3.25;1.38;;;;;;;9.65;100.00;100545.53;4988453;28;20031;-70
2022/01/29 11:14:07;;;;;;;3.58;1.83;;;;;;;9.84;100.00;100528.66;4972013;28;20377;-71
2022/01/29 11:16:34;;;;;;;3.08;1.52;;;;;;;9.92;100.00;100512.31;4970783;28;20444;-70
2022/01/29 11:18:59;;;;;;;3.42;1.55;;;;;;;9.78;100.00;100492.41;4963123;28;20352;-72
2022/01/29 11:21:26;;;;;;;5.50;1.73;;;;;;;9.66;100.00;100492.53;4970261;28;20107;-72
2022/01/29 11:23:53;;;;;;;1.48;1.05;;;;;;;9.88;100.00;100489.16;4959780;28;20116;-72
2022/01/29 11:26:19;;;;;;;2.35;1.38;;;;;;;9.74;100.00;100505.78;4959968;28;20038;-72
2022/01/29 11:28:44;;;;;;;4.43;1.42;;;;;;;9.81;100.00;100467.50;4965799;28;20045;-70
2022/01/29 11:31:13;;;;;;;2.92;1.55;;;;;;;9.62;100.00;100479.00;4968163;28;20492;-72
2022/01/29 11:33:57;;;;;;;2.35;1.15;;;;;;;9.90;100.00;100478.81;4980643;28;20034;-70
2022/01/29 11:36:22;;;;;;;2.92;1.48;;;;;;;10.02;100.00;100478.69;4959469;28;20051;-72